Portada
METAR-TAF:

METAR-TAF

Aeroports :

Aeroport Internacional Hassan I

Al-Aaiun, Marroc

latitud: 27-10N, longitud: 013-12-59W, altitud: 6 m

Observació

L'informe es va fer fa 51 minuts, a les 00:00 UTC
Vent 9 kt del Nord
Temperatura 17°C
Humitat 94%
Pressió 1015 hPa
Visibilitat 10 km o més
Núvols disperses a una alçada de 1700 ft

METAR: GMML 220000Z 01009KT 9999 SCT017 17/16 Q1015 NOSIG

Hora: 01:51 (00:51 UTC)

Pronòstic

L'informe es va fer fa 1 hora i 51 minuts, a les 23:00 UTC
Pronòstic vàlid del 22 a les 00 UTC al 23 a les 06 UTC
Vent 9 kt del Nord
Visibilitat 10 km o més
sense núvols per sota de 1500 mi sense presència de cumulonimbus.

TAF: GMML 212300Z 2200/2306 36009KT CAVOK

Observacions i pronòstics meteorològics de més de 4000 aeroports (METAR i TAF).

Les estacions disponibles són els punts grocs i vermells al mapa.

Posi el ratolí al punt desitjat per veure el nom de l'estació.

Feu clic per veure les observacions i els pronòstics meteorològics.

Per canviar el mapa: feu clic els botons verds amb una creu de color negre per apropar; al botó verd amb un guió per allunyar la imatge; o en les fletxes verdes per a mapes adjacents.


METAR-TAF: